sensor_id;sensor_type;location;lat;lon;timestamp;temperature;humidity
53310;DHT22;39197;53.200;5.792;2024-01-06T00:01:40;3.00;99.90
53310;DHT22;39197;53.200;5.792;2024-01-06T00:04:06;3.10;99.90
53310;DHT22;39197;53.200;5.792;2024-01-06T00:06:31;3.20;99.90
53310;DHT22;39197;53.200;5.792;2024-01-06T00:08:58;2.90;99.90
53310;DHT22;39197;53.200;5.792;2024-01-06T00:11:24;2.80;99.90
53310;DHT22;39197;53.200;5.792;2024-01-06T00:13:50;3.00;99.90
53310;DHT22;39197;53.200;5.792;2024-01-06T00:16:19;3.00;99.90
53310;DHT22;39197;53.200;5.792;2024-01-06T00:18:48;2.80;99.90
53310;DHT22;39197;53.200;5.792;2024-01-06T00:21:14;2.90;99.90
53310;DHT22;39197;53.200;5.792;2024-01-06T00:23:40;2.70;99.90
53310;DHT22;39197;53.200;5.792;2024-01-06T00:26:06;2.80;99.90
53310;DHT22;39197;53.200;5.792;2024-01-06T00:28:32;2.70;99.90
53310;DHT22;39197;53.200;5.792;2024-01-06T00:30:57;2.90;99.90
53310;DHT22;39197;53.200;5.792;2024-01-06T00:33:23;2.80;99.90
53310;DHT22;39197;53.200;5.792;2024-01-06T00:35:48;2.90;99.90
53310;DHT22;39197;53.200;5.792;2024-01-06T00:38:14;2.70;99.90
53310;DHT22;39197;53.200;5.792;2024-01-06T00:40:39;2.90;99.90
53310;DHT22;39197;53.200;5.792;2024-01-06T00:43:05;3.00;99.90
53310;DHT22;39197;53.200;5.792;2024-01-06T00:45:31;2.90;99.90
53310;DHT22;39197;53.200;5.792;2024-01-06T00:47:56;2.90;99.90
53310;DHT22;39197;53.200;5.792;2024-01-06T00:50:22;2.70;99.90
53310;DHT22;39197;53.200;5.792;2024-01-06T00:52:48;2.70;99.90
53310;DHT22;39197;53.200;5.792;2024-01-06T00:55:20;2.90;99.90
53310;DHT22;39197;53.200;5.792;2024-01-06T00:57:46;2.80;99.90
53310;DHT22;39197;53.200;5.792;2024-01-06T01:00:12;2.80;99.90
53310;DHT22;39197;53.200;5.792;2024-01-06T01:02:38;2.80;99.90
53310;DHT22;39197;53.200;5.792;2024-01-06T01:05:04;2.70;99.90
53310;DHT22;39197;53.200;5.792;2024-01-06T01:07:30;2.60;99.90
53310;DHT22;39197;53.200;5.792;2024-01-06T01:09:56;2.90;99.90
53310;DHT22;39197;53.200;5.792;2024-01-06T01:12:23;2.70;99.90
53310;DHT22;39197;53.200;5.792;2024-01-06T01:14:49;2.80;99.90
53310;DHT22;39197;53.200;5.792;2024-01-06T01:17:16;2.70;99.90
53310;DHT22;39197;53.200;5.792;2024-01-06T01:19:41;2.90;99.90
53310;DHT22;39197;53.200;5.792;2024-01-06T01:22:07;2.90;99.90
53310;DHT22;39197;53.200;5.792;2024-01-06T01:24:33;2.60;99.90
53310;DHT22;39197;53.200;5.792;2024-01-06T01:26:58;2.70;99.90
53310;DHT22;39197;53.200;5.792;2024-01-06T01:29:24;2.90;99.90
53310;DHT22;39197;53.200;5.792;2024-01-06T01:31:49;2.60;99.90
53310;DHT22;39197;53.200;5.792;2024-01-06T01:34:15;2.60;99.90
53310;DHT22;39197;53.200;5.792;2024-01-06T01:36:40;2.90;99.90
53310;DHT22;39197;53.200;5.792;2024-01-06T01:39:06;2.80;99.90
53310;DHT22;39197;53.200;5.792;2024-01-06T01:41:32;2.80;99.90
53310;DHT22;39197;53.200;5.792;2024-01-06T01:43:57;2.60;99.90
53310;DHT22;39197;53.200;5.792;2024-01-06T01:46:30;2.60;99.90
53310;DHT22;39197;53.200;5.792;2024-01-06T01:48:56;2.80;99.90
53310;DHT22;39197;53.200;5.792;2024-01-06T01:51:22;2.60;99.90
53310;DHT22;39197;53.200;5.792;2024-01-06T01:53:49;2.50;99.90
53310;DHT22;39197;53.200;5.792;2024-01-06T01:56:15;2.60;99.90
53310;DHT22;39197;53.200;5.792;2024-01-06T01:58:41;2.80;99.90
53310;DHT22;39197;53.200;5.792;2024-01-06T02:01:07;2.60;99.90
53310;DHT22;39197;53.200;5.792;2024-01-06T02:03:34;2.70;99.90
53310;DHT22;39197;53.200;5.792;2024-01-06T02:06:00;2.60;99.90
53310;DHT22;39197;53.200;5.792;2024-01-06T02:08:26;2.50;99.90
53310;DHT22;39197;53.200;5.792;2024-01-06T02:10:56;2.80;99.90
53310;DHT22;39197;53.200;5.792;2024-01-06T02:13:23;2.80;99.90
53310;DHT22;39197;53.200;5.792;2024-01-06T02:15:49;2.60;99.90
53310;DHT22;39197;53.200;5.792;2024-01-06T02:18:15;2.70;99.90
53310;DHT22;39197;53.200;5.792;2024-01-06T02:20:43;2.80;99.90
53310;DHT22;39197;53.200;5.792;2024-01-06T02:23:09;2.70;99.90
53310;DHT22;39197;53.200;5.792;2024-01-06T02:25:35;2.80;99.90
53310;DHT22;39197;53.200;5.792;2024-01-06T02:28:01;2.70;99.90
53310;DHT22;39197;53.200;5.792;2024-01-06T02:30:26;2.60;99.90
53310;DHT22;39197;53.200;5.792;2024-01-06T02:32:52;2.90;99.90
53310;DHT22;39197;53.200;5.792;2024-01-06T02:35:18;2.80;99.90
53310;DHT22;39197;53.200;5.792;2024-01-06T02:37:43;2.90;99.90
53310;DHT22;39197;53.200;5.792;2024-01-06T02:40:10;2.60;99.90
53310;DHT22;39197;53.200;5.792;2024-01-06T02:42:35;2.80;99.90
53310;DHT22;39197;53.200;5.792;2024-01-06T02:45:01;2.90;99.90
53310;DHT22;39197;53.200;5.792;2024-01-06T02:47:27;2.70;99.90
53310;DHT22;39197;53.200;5.792;2024-01-06T02:49:53;2.90;99.90
53310;DHT22;39197;53.200;5.792;2024-01-06T02:52:18;2.70;99.90
53310;DHT22;39197;53.200;5.792;2024-01-06T02:54:44;3.00;99.90
53310;DHT22;39197;53.200;5.792;2024-01-06T02:57:09;3.00;99.90
53310;DHT22;39197;53.200;5.792;2024-01-06T02:59:35;2.70;99.90
53310;DHT22;39197;53.200;5.792;2024-01-06T03:02:01;3.00;99.90
53310;DHT22;39197;53.200;5.792;2024-01-06T03:04:27;2.90;99.90
53310;DHT22;39197;53.200;5.792;2024-01-06T03:06:52;3.00;99.90
53310;DHT22;39197;53.200;5.792;2024-01-06T03:09:18;2.90;99.90
53310;DHT22;39197;53.200;5.792;2024-01-06T03:11:45;2.90;99.90
53310;DHT22;39197;53.200;5.792;2024-01-06T03:14:10;3.00;99.90
53310;DHT22;39197;53.200;5.792;2024-01-06T03:16:36;3.00;99.90
53310;DHT22;39197;53.200;5.792;2024-01-06T03:19:01;2.70;99.90
53310;DHT22;39197;53.200;5.792;2024-01-06T03:21:27;2.80;99.90
53310;DHT22;39197;53.200;5.792;2024-01-06T03:23:53;2.70;99.90
53310;DHT22;39197;53.200;5.792;2024-01-06T03:26:20;2.90;99.90
53310;DHT22;39197;53.200;5.792;2024-01-06T03:28:48;2.90;99.90
53310;DHT22;39197;53.200;5.792;2024-01-06T03:31:14;2.70;99.90
53310;DHT22;39197;53.200;5.792;2024-01-06T03:33:40;2.90;99.90
53310;DHT22;39197;53.200;5.792;2024-01-06T03:36:06;2.80;99.90
53310;DHT22;39197;53.200;5.792;2024-01-06T03:38:33;2.90;99.90
53310;DHT22;39197;53.200;5.792;2024-01-06T03:40:58;2.80;99.90
53310;DHT22;39197;53.200;5.792;2024-01-06T03:43:24;2.90;99.90
53310;DHT22;39197;53.200;5.792;2024-01-06T03:45:49;2.90;99.90
53310;DHT22;39197;53.200;5.792;2024-01-06T03:48:15;2.60;99.90
53310;DHT22;39197;53.200;5.792;2024-01-06T03:50:40;2.90;99.90
53310;DHT22;39197;53.200;5.792;2024-01-06T03:53:06;2.70;99.90
53310;DHT22;39197;53.200;5.792;2024-01-06T03:55:32;2.90;99.90
53310;DHT22;39197;53.200;5.792;2024-01-06T03:57:58;2.70;99.90
53310;DHT22;39197;53.200;5.792;2024-01-06T04:00:25;2.70;99.90
53310;DHT22;39197;53.200;5.792;2024-01-06T04:02:51;2.70;99.90
53310;DHT22;39197;53.200;5.792;2024-01-06T04:05:16;2.90;99.90
53310;DHT22;39197;53.200;5.792;2024-01-06T04:07:42;2.90;99.90
53310;DHT22;39197;53.200;5.792;2024-01-06T04:10:08;2.70;99.90
53310;DHT22;39197;53.200;5.792;2024-01-06T04:12:33;3.00;99.90
53310;DHT22;39197;53.200;5.792;2024-01-06T04:14:59;2.70;99.90
53310;DHT22;39197;53.200;5.792;2024-01-06T04:17:24;2.80;99.90
53310;DHT22;39197;53.200;5.792;2024-01-06T04:19:52;2.70;99.90
53310;DHT22;39197;53.200;5.792;2024-01-06T04:22:18;2.80;99.90
53310;DHT22;39197;53.200;5.792;2024-01-06T04:24:43;3.00;99.90
53310;DHT22;39197;53.200;5.792;2024-01-06T04:27:09;2.80;99.90
53310;DHT22;39197;53.200;5.792;2024-01-06T04:29:35;2.80;99.90
53310;DHT22;39197;53.200;5.792;2024-01-06T04:32:00;2.90;99.90
53310;DHT22;39197;53.200;5.792;2024-01-06T04:34:26;2.90;99.90
53310;DHT22;39197;53.200;5.792;2024-01-06T04:36:52;2.80;99.90
53310;DHT22;39197;53.200;5.792;2024-01-06T04:39:17;2.90;99.90
53310;DHT22;39197;53.200;5.792;2024-01-06T04:41:43;3.00;99.90
53310;DHT22;39197;53.200;5.792;2024-01-06T04:44:09;2.90;99.90
53310;DHT22;39197;53.200;5.792;2024-01-06T04:46:34;2.80;99.90
53310;DHT22;39197;53.200;5.792;2024-01-06T04:49:00;2.70;99.90
53310;DHT22;39197;53.200;5.792;2024-01-06T04:51:25;2.80;99.90
53310;DHT22;39197;53.200;5.792;2024-01-06T04:53:51;2.90;99.90
53310;DHT22;39197;53.200;5.792;2024-01-06T04:56:16;3.00;99.90
53310;DHT22;39197;53.200;5.792;2024-01-06T04:58:42;3.00;99.90
53310;DHT22;39197;53.200;5.792;2024-01-06T05:01:08;2.90;99.90
53310;DHT22;39197;53.200;5.792;2024-01-06T05:03:33;2.90;99.90
53310;DHT22;39197;53.200;5.792;2024-01-06T05:05:59;3.10;99.90
53310;DHT22;39197;53.200;5.792;2024-01-06T05:08:24;2.90;99.90
53310;DHT22;39197;53.200;5.792;2024-01-06T05:10:52;3.00;99.90
53310;DHT22;39197;53.200;5.792;2024-01-06T05:13:18;2.80;99.90
53310;DHT22;39197;53.200;5.792;2024-01-06T05:15:44;2.80;99.90
53310;DHT22;39197;53.200;5.792;2024-01-06T05:18:10;2.70;99.90
53310;DHT22;39197;53.200;5.792;2024-01-06T05:20:35;2.90;99.90
53310;DHT22;39197;53.200;5.792;2024-01-06T05:23:01;2.70;99.90
53310;DHT22;39197;53.200;5.792;2024-01-06T05:25:26;2.80;99.90
53310;DHT22;39197;53.200;5.792;2024-01-06T05:27:52;2.70;99.90
53310;DHT22;39197;53.200;5.792;2024-01-06T05:30:17;2.80;99.90
53310;DHT22;39197;53.200;5.792;2024-01-06T05:32:43;2.70;99.90
53310;DHT22;39197;53.200;5.792;2024-01-06T05:35:09;2.80;99.90
53310;DHT22;39197;53.200;5.792;2024-01-06T05:37:35;2.80;99.90
53310;DHT22;39197;53.200;5.792;2024-01-06T05:40:00;2.70;99.90
53310;DHT22;39197;53.200;5.792;2024-01-06T05:42:27;2.60;99.90
53310;DHT22;39197;53.200;5.792;2024-01-06T05:44:52;2.90;99.90
53310;DHT22;39197;53.200;5.792;2024-01-06T05:47:18;2.70;99.90
53310;DHT22;39197;53.200;5.792;2024-01-06T05:49:43;2.70;99.90
53310;DHT22;39197;53.200;5.792;2024-01-06T05:52:12;2.90;99.90
53310;DHT22;39197;53.200;5.792;2024-01-06T05:54:41;2.90;99.90
53310;DHT22;39197;53.200;5.792;2024-01-06T05:57:07;2.80;99.90
53310;DHT22;39197;53.200;5.792;2024-01-06T05:59:33;2.70;99.90
53310;DHT22;39197;53.200;5.792;2024-01-06T06:01:59;2.90;99.90
53310;DHT22;39197;53.200;5.792;2024-01-06T06:04:25;3.00;99.90
53310;DHT22;39197;53.200;5.792;2024-01-06T06:06:51;2.80;99.90
53310;DHT22;39197;53.200;5.792;2024-01-06T06:09:16;2.80;99.90
53310;DHT22;39197;53.200;5.792;2024-01-06T06:11:42;2.70;99.90
53310;DHT22;39197;53.200;5.792;2024-01-06T06:14:08;2.80;99.90
53310;DHT22;39197;53.200;5.792;2024-01-06T06:16:34;2.70;99.90
53310;DHT22;39197;53.200;5.792;2024-01-06T06:19:00;2.70;99.90
53310;DHT22;39197;53.200;5.792;2024-01-06T06:21:25;2.70;99.90
53310;DHT22;39197;53.200;5.792;2024-01-06T06:23:51;2.70;99.90
53310;DHT22;39197;53.200;5.792;2024-01-06T06:26:17;2.70;99.90
53310;DHT22;39197;53.200;5.792;2024-01-06T06:28:42;2.80;99.90
53310;DHT22;39197;53.200;5.792;2024-01-06T06:31:08;2.80;99.90
53310;DHT22;39197;53.200;5.792;2024-01-06T06:33:34;3.00;99.90
53310;DHT22;39197;53.200;5.792;2024-01-06T06:36:00;2.80;99.90
53310;DHT22;39197;53.200;5.792;2024-01-06T06:38:27;2.80;99.90
53310;DHT22;39197;53.200;5.792;2024-01-06T06:40:52;3.00;99.90
53310;DHT22;39197;53.200;5.792;2024-01-06T06:43:18;2.90;99.90
53310;DHT22;39197;53.200;5.792;2024-01-06T06:45:44;2.80;99.90
53310;DHT22;39197;53.200;5.792;2024-01-06T06:48:09;2.80;99.90
53310;DHT22;39197;53.200;5.792;2024-01-06T06:50:35;2.90;99.90
53310;DHT22;39197;53.200;5.792;2024-01-06T06:53:01;3.00;99.90
53310;DHT22;39197;53.200;5.792;2024-01-06T06:55:26;3.00;99.90
53310;DHT22;39197;53.200;5.792;2024-01-06T06:57:53;2.80;99.90
53310;DHT22;39197;53.200;5.792;2024-01-06T07:00:19;2.80;99.90
53310;DHT22;39197;53.200;5.792;2024-01-06T07:02:45;2.90;99.90
53310;DHT22;39197;53.200;5.792;2024-01-06T07:05:10;3.00;99.90
53310;DHT22;39197;53.200;5.792;2024-01-06T07:07:36;2.90;99.90
53310;DHT22;39197;53.200;5.792;2024-01-06T07:10:04;3.10;99.90
53310;DHT22;39197;53.200;5.792;2024-01-06T07:12:31;2.90;99.90
53310;DHT22;39197;53.200;5.792;2024-01-06T07:14:57;3.00;99.90
53310;DHT22;39197;53.200;5.792;2024-01-06T07:17:24;3.00;99.90
53310;DHT22;39197;53.200;5.792;2024-01-06T07:19:50;2.90;99.90
53310;DHT22;39197;53.200;5.792;2024-01-06T07:22:15;3.10;99.90
53310;DHT22;39197;53.200;5.792;2024-01-06T07:24:44;2.80;99.90
53310;DHT22;39197;53.200;5.792;2024-01-06T07:27:10;3.00;99.90
53310;DHT22;39197;53.200;5.792;2024-01-06T07:29:35;3.10;99.90
53310;DHT22;39197;53.200;5.792;2024-01-06T07:32:02;3.00;99.90
53310;DHT22;39197;53.200;5.792;2024-01-06T07:34:28;3.10;99.90
53310;DHT22;39197;53.200;5.792;2024-01-06T07:36:53;2.90;99.90
53310;DHT22;39197;53.200;5.792;2024-01-06T07:39:19;3.10;99.90
53310;DHT22;39197;53.200;5.792;2024-01-06T07:41:44;3.00;99.90
53310;DHT22;39197;53.200;5.792;2024-01-06T07:44:12;3.10;99.90
53310;DHT22;39197;53.200;5.792;2024-01-06T07:46:38;2.90;99.90
53310;DHT22;39197;53.200;5.792;2024-01-06T07:49:05;3.10;99.90
53310;DHT22;39197;53.200;5.792;2024-01-06T07:51:31;3.10;99.90
53310;DHT22;39197;53.200;5.792;2024-01-06T07:53:57;2.90;99.90
53310;DHT22;39197;53.200;5.792;2024-01-06T07:56:23;2.90;99.90
53310;DHT22;39197;53.200;5.792;2024-01-06T07:58:49;2.90;99.90
53310;DHT22;39197;53.200;5.792;2024-01-06T08:01:15;3.00;99.90
53310;DHT22;39197;53.200;5.792;2024-01-06T08:03:40;3.10;99.90
53310;DHT22;39197;53.200;5.792;2024-01-06T08:06:06;3.10;99.90
53310;DHT22;39197;53.200;5.792;2024-01-06T08:08:32;3.00;99.90
53310;DHT22;39197;53.200;5.792;2024-01-06T08:10:57;3.20;99.90
53310;DHT22;39197;53.200;5.792;2024-01-06T08:13:23;3.00;99.90
53310;DHT22;39197;53.200;5.792;2024-01-06T08:15:48;3.10;99.90
53310;DHT22;39197;53.200;5.792;2024-01-06T08:18:14;3.20;99.90
53310;DHT22;39197;53.200;5.792;2024-01-06T08:20:40;3.20;99.90
53310;DHT22;39197;53.200;5.792;2024-01-06T08:23:05;3.20;99.90
53310;DHT22;39197;53.200;5.792;2024-01-06T08:25:31;3.00;99.90
53310;DHT22;39197;53.200;5.792;2024-01-06T08:27:56;3.10;99.90
53310;DHT22;39197;53.200;5.792;2024-01-06T08:30:22;3.00;99.90
53310;DHT22;39197;53.200;5.792;2024-01-06T08:32:49;3.00;99.90
53310;DHT22;39197;53.200;5.792;2024-01-06T08:35:14;3.20;99.90
53310;DHT22;39197;53.200;5.792;2024-01-06T08:37:42;3.10;99.90
53310;DHT22;39197;53.200;5.792;2024-01-06T08:40:09;3.10;99.90
53310;DHT22;39197;53.200;5.792;2024-01-06T08:42:34;3.20;99.90
53310;DHT22;39197;53.200;5.792;2024-01-06T08:45:00;3.20;99.90
53310;DHT22;39197;53.200;5.792;2024-01-06T08:47:25;3.20;99.90
53310;DHT22;39197;53.200;5.792;2024-01-06T08:49:51;3.10;99.90
53310;DHT22;39197;53.200;5.792;2024-01-06T08:52:16;3.00;99.90
53310;DHT22;39197;53.200;5.792;2024-01-06T08:54:42;3.10;99.90
53310;DHT22;39197;53.200;5.792;2024-01-06T08:57:10;3.10;99.90
53310;DHT22;39197;53.200;5.792;2024-01-06T08:59:36;3.00;99.90
53310;DHT22;39197;53.200;5.792;2024-01-06T09:02:02;3.10;99.90
53310;DHT22;39197;53.200;5.792;2024-01-06T09:04:27;3.10;99.90
53310;DHT22;39197;53.200;5.792;2024-01-06T09:06:53;3.00;99.90
53310;DHT22;39197;53.200;5.792;2024-01-06T09:09:19;3.10;99.90
53310;DHT22;39197;53.200;5.792;2024-01-06T09:11:44;3.20;99.90
53310;DHT22;39197;53.200;5.792;2024-01-06T09:14:12;3.00;99.90
53310;DHT22;39197;53.200;5.792;2024-01-06T09:16:37;2.90;99.90
53310;DHT22;39197;53.200;5.792;2024-01-06T09:19:03;3.10;99.90
53310;DHT22;39197;53.200;5.792;2024-01-06T09:21:28;3.20;99.90
53310;DHT22;39197;53.200;5.792;2024-01-06T09:23:54;3.10;99.90
53310;DHT22;39197;53.200;5.792;2024-01-06T09:26:20;3.00;99.90
53310;DHT22;39197;53.200;5.792;2024-01-06T09:28:45;3.00;99.90
53310;DHT22;39197;53.200;5.792;2024-01-06T09:31:11;3.00;99.90
53310;DHT22;39197;53.200;5.792;2024-01-06T09:33:36;3.00;99.90
53310;DHT22;39197;53.200;5.792;2024-01-06T09:36:02;3.00;99.90
53310;DHT22;39197;53.200;5.792;2024-01-06T09:38:28;2.90;99.90
53310;DHT22;39197;53.200;5.792;2024-01-06T09:40:55;2.90;99.90
53310;DHT22;39197;53.200;5.792;2024-01-06T09:43:21;3.00;99.90
53310;DHT22;39197;53.200;5.792;2024-01-06T09:45:56;2.90;99.90
53310;DHT22;39197;53.200;5.792;2024-01-06T09:48:28;3.00;99.90
53310;DHT22;39197;53.200;5.792;2024-01-06T09:50:56;2.90;99.90
53310;DHT22;39197;53.200;5.792;2024-01-06T09:53:24;3.10;99.90
53310;DHT22;39197;53.200;5.792;2024-01-06T09:55:55;3.00;99.90
53310;DHT22;39197;53.200;5.792;2024-01-06T09:58:21;3.10;99.90
53310;DHT22;39197;53.200;5.792;2024-01-06T10:00:48;2.90;99.90
53310;DHT22;39197;53.200;5.792;2024-01-06T10:03:14;3.10;99.90
53310;DHT22;39197;53.200;5.792;2024-01-06T10:05:40;3.00;99.90
53310;DHT22;39197;53.200;5.792;2024-01-06T10:08:06;3.10;99.90
53310;DHT22;39197;53.200;5.792;2024-01-06T10:10:33;3.00;99.90
53310;DHT22;39197;53.200;5.792;2024-01-06T10:12:59;3.00;99.90
53310;DHT22;39197;53.200;5.792;2024-01-06T10:15:25;3.00;99.90
53310;DHT22;39197;53.200;5.792;2024-01-06T10:17:53;3.20;99.90
53310;DHT22;39197;53.200;5.792;2024-01-06T10:20:19;3.20;99.90
53310;DHT22;39197;53.200;5.792;2024-01-06T10:22:46;3.00;99.90
53310;DHT22;39197;53.200;5.792;2024-01-06T10:25:12;3.00;99.90
53310;DHT22;39197;53.200;5.792;2024-01-06T10:27:40;3.10;99.90
53310;DHT22;39197;53.200;5.792;2024-01-06T10:30:07;3.00;99.90
53310;DHT22;39197;53.200;5.792;2024-01-06T10:32:34;3.10;99.90
53310;DHT22;39197;53.200;5.792;2024-01-06T10:35:03;3.10;99.90
53310;DHT22;39197;53.200;5.792;2024-01-06T10:37:31;3.10;99.90
53310;DHT22;39197;53.200;5.792;2024-01-06T10:40:13;3.10;99.90
53310;DHT22;39197;53.200;5.792;2024-01-06T10:42:40;3.10;99.90
53310;DHT22;39197;53.200;5.792;2024-01-06T10:45:11;3.20;99.90
53310;DHT22;39197;53.200;5.792;2024-01-06T10:47:38;3.20;99.90
53310;DHT22;39197;53.200;5.792;2024-01-06T10:50:04;3.10;99.90
53310;DHT22;39197;53.200;5.792;2024-01-06T10:52:30;3.10;99.90
53310;DHT22;39197;53.200;5.792;2024-01-06T10:54:57;3.30;99.90
53310;DHT22;39197;53.200;5.792;2024-01-06T10:57:23;3.10;99.90
53310;DHT22;39197;53.200;5.792;2024-01-06T10:59:51;3.20;99.90
53310;DHT22;39197;53.200;5.792;2024-01-06T11:02:18;3.20;99.90
53310;DHT22;39197;53.200;5.792;2024-01-06T11:04:48;3.00;99.90
53310;DHT22;39197;53.200;5.792;2024-01-06T11:07:16;3.00;99.90
53310;DHT22;39197;53.200;5.792;2024-01-06T11:10:15;3.10;99.90
53310;DHT22;39197;53.200;5.792;2024-01-06T11:12:44;3.00;99.90
53310;DHT22;39197;53.200;5.792;2024-01-06T11:15:10;3.20;99.90
53310;DHT22;39197;53.200;5.792;2024-01-06T11:17:55;3.00;99.90
53310;DHT22;39197;53.200;5.792;2024-01-06T11:20:24;3.10;99.90
53310;DHT22;39197;53.200;5.792;2024-01-06T11:22:50;3.10;99.90
53310;DHT22;39197;53.200;5.792;2024-01-06T11:25:19;3.00;99.90
53310;DHT22;39197;53.200;5.792;2024-01-06T11:27:47;3.00;99.90
53310;DHT22;39197;53.200;5.792;2024-01-06T11:30:26;3.00;99.90
53310;DHT22;39197;53.200;5.792;2024-01-06T11:32:55;3.10;99.90
53310;DHT22;39197;53.200;5.792;2024-01-06T11:35:26;3.00;99.90
53310;DHT22;39197;53.200;5.792;2024-01-06T11:37:58;3.00;99.90
53310;DHT22;39197;53.200;5.792;2024-01-06T11:40:31;3.10;99.90
53310;DHT22;39197;53.200;5.792;2024-01-06T11:45:26;3.20;99.90
53310;DHT22;39197;53.200;5.792;2024-01-06T11:47:58;3.10;99.90
53310;DHT22;39197;53.200;5.792;2024-01-06T11:50:29;3.10;99.90
53310;DHT22;39197;53.200;5.792;2024-01-06T11:52:55;3.00;99.90
53310;DHT22;39197;53.200;5.792;2024-01-06T11:55:21;3.10;99.90
53310;DHT22;39197;53.200;5.792;2024-01-06T11:57:47;3.10;99.90
53310;DHT22;39197;53.200;5.792;2024-01-06T12:00:15;2.90;99.90
53310;DHT22;39197;53.200;5.792;2024-01-06T12:02:41;3.10;99.90
53310;DHT22;39197;53.200;5.792;2024-01-06T12:05:15;3.00;99.90
53310;DHT22;39197;53.200;5.792;2024-01-06T12:08:02;2.90;99.90
53310;DHT22;39197;53.200;5.792;2024-01-06T12:10:32;3.10;99.90
53310;DHT22;39197;53.200;5.792;2024-01-06T12:13:00;3.00;99.90
53310;DHT22;39197;53.200;5.792;2024-01-06T12:15:27;3.00;99.90
53310;DHT22;39197;53.200;5.792;2024-01-06T12:17:52;3.00;99.90
53310;DHT22;39197;53.200;5.792;2024-01-06T12:20:18;2.90;99.90
53310;DHT22;39197;53.200;5.792;2024-01-06T12:22:44;2.90;99.90
53310;DHT22;39197;53.200;5.792;2024-01-06T12:25:10;3.10;99.90
53310;DHT22;39197;53.200;5.792;2024-01-06T12:27:42;2.90;99.90
53310;DHT22;39197;53.200;5.792;2024-01-06T12:30:19;3.00;99.90
53310;DHT22;39197;53.200;5.792;2024-01-06T12:32:49;3.00;99.90
53310;DHT22;39197;53.200;5.792;2024-01-06T12:35:19;2.80;99.90
53310;DHT22;39197;53.200;5.792;2024-01-06T12:37:45;2.90;99.90
53310;DHT22;39197;53.200;5.792;2024-01-06T12:40:12;2.90;99.90
53310;DHT22;39197;53.200;5.792;2024-01-06T12:42:38;2.90;99.90
53310;DHT22;39197;53.200;5.792;2024-01-06T12:45:05;2.90;99.90
53310;DHT22;39197;53.200;5.792;2024-01-06T12:47:32;2.90;99.90
53310;DHT22;39197;53.200;5.792;2024-01-06T12:49:57;2.80;99.90
53310;DHT22;39197;53.200;5.792;2024-01-06T12:52:23;2.80;99.90
53310;DHT22;39197;53.200;5.792;2024-01-06T12:54:49;2.90;99.90
53310;DHT22;39197;53.200;5.792;2024-01-06T12:57:15;2.80;99.90
53310;DHT22;39197;53.200;5.792;2024-01-06T12:59:41;2.80;99.90
53310;DHT22;39197;53.200;5.792;2024-01-06T13:02:06;2.90;99.90
53310;DHT22;39197;53.200;5.792;2024-01-06T13:04:32;2.80;99.90
53310;DHT22;39197;53.200;5.792;2024-01-06T13:06:58;2.90;99.90
53310;DHT22;39197;53.200;5.792;2024-01-06T13:09:24;2.90;99.90
53310;DHT22;39197;53.200;5.792;2024-01-06T13:11:50;2.80;99.90
53310;DHT22;39197;53.200;5.792;2024-01-06T13:14:17;2.90;99.90
53310;DHT22;39197;53.200;5.792;2024-01-06T13:16:43;2.90;99.90
53310;DHT22;39197;53.200;5.792;2024-01-06T13:19:09;2.70;99.90
53310;DHT22;39197;53.200;5.792;2024-01-06T13:21:34;2.80;99.90
53310;DHT22;39197;53.200;5.792;2024-01-06T13:24:01;2.80;99.90
53310;DHT22;39197;53.200;5.792;2024-01-06T13:26:29;2.80;99.90
53310;DHT22;39197;53.200;5.792;2024-01-06T13:28:55;2.80;99.90
53310;DHT22;39197;53.200;5.792;2024-01-06T13:31:20;2.80;99.90
53310;DHT22;39197;53.200;5.792;2024-01-06T13:33:46;2.90;99.90
53310;DHT22;39197;53.200;5.792;2024-01-06T13:36:12;3.00;99.90
53310;DHT22;39197;53.200;5.792;2024-01-06T13:38:38;2.90;99.90
53310;DHT22;39197;53.200;5.792;2024-01-06T13:41:04;2.80;99.90
53310;DHT22;39197;53.200;5.792;2024-01-06T13:43:30;2.90;99.90
53310;DHT22;39197;53.200;5.792;2024-01-06T13:45:57;2.90;99.90
53310;DHT22;39197;53.200;5.792;2024-01-06T13:48:23;2.80;99.90
53310;DHT22;39197;53.200;5.792;2024-01-06T13:50:49;2.90;99.90
53310;DHT22;39197;53.200;5.792;2024-01-06T13:53:15;2.90;99.90
53310;DHT22;39197;53.200;5.792;2024-01-06T13:55:41;2.80;99.90
53310;DHT22;39197;53.200;5.792;2024-01-06T13:58:06;2.70;99.90
53310;DHT22;39197;53.200;5.792;2024-01-06T14:00:35;2.80;99.90
53310;DHT22;39197;53.200;5.792;2024-01-06T14:03:00;2.90;99.90
53310;DHT22;39197;53.200;5.792;2024-01-06T14:05:26;2.80;99.90
53310;DHT22;39197;53.200;5.792;2024-01-06T14:07:52;2.70;99.90
53310;DHT22;39197;53.200;5.792;2024-01-06T14:10:18;2.70;99.90
53310;DHT22;39197;53.200;5.792;2024-01-06T14:12:44;2.70;99.90
53310;DHT22;39197;53.200;5.792;2024-01-06T14:15:10;2.70;99.90
53310;DHT22;39197;53.200;5.792;2024-01-06T14:17:36;2.80;99.90
53310;DHT22;39197;53.200;5.792;2024-01-06T14:20:03;2.70;99.90
53310;DHT22;39197;53.200;5.792;2024-01-06T14:22:29;2.70;99.90
53310;DHT22;39197;53.200;5.792;2024-01-06T14:24:54;2.70;99.90
53310;DHT22;39197;53.200;5.792;2024-01-06T14:27:20;2.60;99.90
53310;DHT22;39197;53.200;5.792;2024-01-06T14:29:46;2.60;99.90
53310;DHT22;39197;53.200;5.792;2024-01-06T14:32:12;2.50;99.90
53310;DHT22;39197;53.200;5.792;2024-01-06T14:34:38;2.60;99.90
53310;DHT22;39197;53.200;5.792;2024-01-06T14:37:04;2.60;99.90
53310;DHT22;39197;53.200;5.792;2024-01-06T14:39:30;2.60;99.90
53310;DHT22;39197;53.200;5.792;2024-01-06T14:41:56;2.70;99.90
53310;DHT22;39197;53.200;5.792;2024-01-06T14:44:21;2.60;99.90
53310;DHT22;39197;53.200;5.792;2024-01-06T14:46:48;2.60;99.90
53310;DHT22;39197;53.200;5.792;2024-01-06T14:49:13;2.50;99.90
53310;DHT22;39197;53.200;5.792;2024-01-06T14:51:39;2.50;99.90
53310;DHT22;39197;53.200;5.792;2024-01-06T14:54:05;2.60;99.90
53310;DHT22;39197;53.200;5.792;2024-01-06T14:56:32;2.60;99.90
53310;DHT22;39197;53.200;5.792;2024-01-06T14:58:58;2.60;99.90
53310;DHT22;39197;53.200;5.792;2024-01-06T15:01:23;2.60;99.90
53310;DHT22;39197;53.200;5.792;2024-01-06T15:03:49;2.70;99.90
53310;DHT22;39197;53.200;5.792;2024-01-06T15:06:14;2.70;99.90
53310;DHT22;39197;53.200;5.792;2024-01-06T15:08:42;2.70;99.90
53310;DHT22;39197;53.200;5.792;2024-01-06T15:11:08;2.60;99.90
53310;DHT22;39197;53.200;5.792;2024-01-06T15:13:33;2.60;99.90
53310;DHT22;39197;53.200;5.792;2024-01-06T15:16:01;2.70;99.90
53310;DHT22;39197;53.200;5.792;2024-01-06T15:18:27;2.60;99.90
53310;DHT22;39197;53.200;5.792;2024-01-06T15:20:53;2.60;99.90
53310;DHT22;39197;53.200;5.792;2024-01-06T15:23:18;2.60;99.90
53310;DHT22;39197;53.200;5.792;2024-01-06T15:25:45;2.70;99.90
53310;DHT22;39197;53.200;5.792;2024-01-06T15:28:12;2.50;99.90
53310;DHT22;39197;53.200;5.792;2024-01-06T15:30:38;2.50;99.90
53310;DHT22;39197;53.200;5.792;2024-01-06T15:33:04;2.60;99.90
53310;DHT22;39197;53.200;5.792;2024-01-06T15:35:30;2.60;99.90
53310;DHT22;39197;53.200;5.792;2024-01-06T15:37:55;2.50;99.90
53310;DHT22;39197;53.200;5.792;2024-01-06T15:40:21;2.70;99.90
53310;DHT22;39197;53.200;5.792;2024-01-06T15:42:47;2.70;99.90